Mary Ann — WCY5683 — position and weather

sailwx.info

Track history (hours):
 
Tides and Currents Weather Stations Pressure Air Temp Water Temp Dewpoint Dewpoint Depression Visibility Wind Speed Wind Dir Waves Ship Positions

Mary Ann

Owner: GETZ, TIMOTHY M, SEAVILLE, NJ. More information available from US FCC via Universal Licensing System and Coast Guard Vessel Documentation Center.

Last reported at 2017-Nov-02 09:10 UTC. Time now 2017-Nov-18 19:37 UTC.
Position N 39°05' W 074°39'.
Warning: this ship's position is 16 days out of date.

Length 22 m.

Type: Fishing. MMSI: 338382000.

Date/timePositionNaut miles runAvg speedWind from/ knotsBaromVisibWave heightAir tempDewpointWater temp
2017-Nov-02 09:10N 39°05' W 074°39'1 6.9
2017-Nov-02 08:59N 39°04' W 074°38'3 7.0
2017-Nov-02 08:29N 39°02' W 074°34'4 7.1
2017-Nov-02 07:59N 39°00' W 074°30'4 7.0
2017-Nov-02 07:28N 38°59' W 074°26'3 7.0
2017-Nov-02 07:00N 38°57' W 074°23'3 6.9
2017-Nov-02 06:30N 38°55' W 074°19'7 6.8
2017-Nov-02 05:27N 38°51' W 074°11'3 6.8
2017-Nov-02 05:00N 38°50' W 074°08'3 6.8
2017-Nov-02 04:30N 38°48' W 074°04'4 6.8
2017-Nov-02 03:59N 38°46' W 074°00'  
2017-Oct-23 12:21N 39°09' W 074°42'0 0.0
2017-Oct-23 12:00N 39°09' W 074°42'0 0.0
2017-Oct-23 10:24N 39°09' W 074°42'0 0.0
2017-Oct-23 09:57N 39°09' W 074°42'  
Track history (hours):
 
Tides and Currents Weather Stations Pressure Air Temp Water Temp Dewpoint Dewpoint Depression Visibility Wind Speed Wind Dir Waves Ship Positions

Mary Ann

Owner: GETZ, TIMOTHY M, SEAVILLE, NJ. More information available from US FCC via Universal Licensing System and Coast Guard Vessel Documentation Center.

Last reported at 2017-Nov-02 09:10 UTC. Time now 2017-Nov-18 19:37 UTC.
Position N 39°05' W 074°39'.
Warning: this ship's position is 16 days out of date.

Length 22 m.

Type: Fishing. MMSI: 338382000.

Date/timePositionNaut miles runAvg speedWind from/ knotsBaromVisibWave heightAir tempDewpointWater temp
2017-Nov-02 09:10N 39°05' W 074°39'1 6.9
2017-Nov-02 08:59N 39°04' W 074°38'3 7.0
2017-Nov-02 08:29N 39°02' W 074°34'4 7.1
2017-Nov-02 07:59N 39°00' W 074°30'4 7.0
2017-Nov-02 07:28N 38°59' W 074°26'3 7.0
2017-Nov-02 07:00N 38°57' W 074°23'3 6.9
2017-Nov-02 06:30N 38°55' W 074°19'7 6.8
2017-Nov-02 05:27N 38°51' W 074°11'3 6.8
2017-Nov-02 05:00N 38°50' W 074°08'3 6.8
2017-Nov-02 04:30N 38°48' W 074°04'4 6.8
2017-Nov-02 03:59N 38°46' W 074°00'  
2017-Oct-23 12:21N 39°09' W 074°42'0 0.0
2017-Oct-23 12:00N 39°09' W 074°42'0 0.0
2017-Oct-23 10:24N 39°09' W 074°42'0 0.0
2017-Oct-23 09:57N 39°09' W 074°42'  

Dump ship's entire track history